sensor_id;sensor_type;location;lat;lon;timestamp;P1;durP1;ratioP1;P2;durP2;ratioP2
21334;SDS011;69435;52.670;13.544;2023-08-08T00:02:32;3.90;;;1.70;;
21334;SDS011;69435;52.670;13.544;2023-08-08T00:05:18;3.07;;;1.90;;
21334;SDS011;69435;52.670;13.544;2023-08-08T00:08:04;3.30;;;1.83;;
21334;SDS011;69435;52.670;13.544;2023-08-08T00:10:53;1.90;;;1.20;;
21334;SDS011;69435;52.670;13.544;2023-08-08T00:13:39;6.43;;;2.10;;
21334;SDS011;69435;52.670;13.544;2023-08-08T00:16:26;3.40;;;1.67;;
21334;SDS011;69435;52.670;13.544;2023-08-08T00:19:12;2.07;;;1.20;;
21334;SDS011;69435;52.670;13.544;2023-08-08T00:21:58;3.47;;;1.60;;
21334;SDS011;69435;52.670;13.544;2023-08-08T00:24:44;4.47;;;1.50;;
21334;SDS011;69435;52.670;13.544;2023-08-08T00:27:30;2.23;;;1.47;;
21334;SDS011;69435;52.670;13.544;2023-08-08T00:30:16;5.33;;;1.43;;
21334;SDS011;69435;52.670;13.544;2023-08-08T00:33:02;2.80;;;1.60;;
21334;SDS011;69435;52.670;13.544;2023-08-08T00:35:48;3.83;;;1.67;;
21334;SDS011;69435;52.670;13.544;2023-08-08T00:38:34;6.03;;;1.77;;
21334;SDS011;69435;52.670;13.544;2023-08-08T00:41:21;1.60;;;1.47;;
21334;SDS011;69435;52.670;13.544;2023-08-08T00:44:08;2.90;;;1.30;;
21334;SDS011;69435;52.670;13.544;2023-08-08T00:46:54;2.77;;;1.33;;
21334;SDS011;69435;52.670;13.544;2023-08-08T00:49:40;1.07;;;0.93;;
21334;SDS011;69435;52.670;13.544;2023-08-08T00:52:29;2.57;;;1.73;;
21334;SDS011;69435;52.670;13.544;2023-08-08T00:55:15;2.10;;;1.30;;
21334;SDS011;69435;52.670;13.544;2023-08-08T00:58:02;1.77;;;1.20;;
21334;SDS011;69435;52.670;13.544;2023-08-08T01:00:49;1.63;;;1.47;;
21334;SDS011;69435;52.670;13.544;2023-08-08T01:03:35;4.50;;;1.90;;
21334;SDS011;69435;52.670;13.544;2023-08-08T01:06:36;2.97;;;1.60;;
21334;SDS011;69435;52.670;13.544;2023-08-08T01:10:00;3.80;;;1.70;;
21334;SDS011;69435;52.670;13.544;2023-08-08T01:12:55;2.10;;;1.40;;
21334;SDS011;69435;52.670;13.544;2023-08-08T01:15:48;3.43;;;1.60;;
21334;SDS011;69435;52.670;13.544;2023-08-08T01:18:35;2.00;;;1.90;;
21334;SDS011;69435;52.670;13.544;2023-08-08T01:21:24;2.93;;;1.87;;
21334;SDS011;69435;52.670;13.544;2023-08-08T01:24:19;1.57;;;1.47;;
21334;SDS011;69435;52.670;13.544;2023-08-08T01:27:14;1.90;;;1.10;;
21334;SDS011;69435;52.670;13.544;2023-08-08T01:30:01;2.97;;;1.87;;
21334;SDS011;69435;52.670;13.544;2023-08-08T01:32:49;1.93;;;1.60;;
21334;SDS011;69435;52.670;13.544;2023-08-08T01:35:37;2.27;;;1.50;;
21334;SDS011;69435;52.670;13.544;2023-08-08T01:38:30;1.87;;;1.60;;
21334;SDS011;69435;52.670;13.544;2023-08-08T01:41:22;2.90;;;1.43;;
21334;SDS011;69435;52.670;13.544;2023-08-08T01:44:10;1.03;;;1.03;;
21334;SDS011;69435;52.670;13.544;2023-08-08T01:46:57;3.67;;;1.50;;
21334;SDS011;69435;52.670;13.544;2023-08-08T01:49:44;4.73;;;1.30;;
21334;SDS011;69435;52.670;13.544;2023-08-08T01:52:30;2.47;;;1.40;;
21334;SDS011;69435;52.670;13.544;2023-08-08T01:55:16;1.47;;;1.40;;
21334;SDS011;69435;52.670;13.544;2023-08-08T01:58:02;1.47;;;1.10;;
21334;SDS011;69435;52.670;13.544;2023-08-08T02:00:48;4.50;;;1.13;;
21334;SDS011;69435;52.670;13.544;2023-08-08T02:03:34;1.40;;;1.30;;
21334;SDS011;69435;52.670;13.544;2023-08-08T02:06:20;2.70;;;1.27;;
21334;SDS011;69435;52.670;13.544;2023-08-08T02:09:07;1.73;;;1.40;;
21334;SDS011;69435;52.670;13.544;2023-08-08T02:11:53;2.27;;;1.03;;
21334;SDS011;69435;52.670;13.544;2023-08-08T02:14:39;1.73;;;1.33;;
21334;SDS011;69435;52.670;13.544;2023-08-08T02:17:25;2.67;;;1.30;;
21334;SDS011;69435;52.670;13.544;2023-08-08T02:20:12;1.27;;;1.10;;
21334;SDS011;69435;52.670;13.544;2023-08-08T02:22:59;1.50;;;1.13;;
21334;SDS011;69435;52.670;13.544;2023-08-08T02:25:45;1.27;;;1.00;;
21334;SDS011;69435;52.670;13.544;2023-08-08T02:28:31;3.63;;;1.73;;
21334;SDS011;69435;52.670;13.544;2023-08-08T02:31:17;1.50;;;1.10;;
21334;SDS011;69435;52.670;13.544;2023-08-08T02:34:06;1.43;;;1.20;;
21334;SDS011;69435;52.670;13.544;2023-08-08T02:36:52;4.20;;;1.40;;
21334;SDS011;69435;52.670;13.544;2023-08-08T02:39:38;1.73;;;1.50;;
21334;SDS011;69435;52.670;13.544;2023-08-08T02:42:23;1.47;;;1.27;;
21334;SDS011;69435;52.670;13.544;2023-08-08T02:45:09;1.63;;;1.53;;
21334;SDS011;69435;52.670;13.544;2023-08-08T02:47:55;3.63;;;1.07;;
21334;SDS011;69435;52.670;13.544;2023-08-08T02:50:41;1.47;;;1.37;;
21334;SDS011;69435;52.670;13.544;2023-08-08T02:53:27;2.70;;;1.40;;
21334;SDS011;69435;52.670;13.544;2023-08-08T02:56:13;1.20;;;1.10;;
21334;SDS011;69435;52.670;13.544;2023-08-08T02:58:59;1.30;;;1.20;;
21334;SDS011;69435;52.670;13.544;2023-08-08T03:01:45;4.23;;;1.27;;
21334;SDS011;69435;52.670;13.544;2023-08-08T03:04:32;1.73;;;1.63;;
21334;SDS011;69435;52.670;13.544;2023-08-08T03:07:18;1.40;;;1.30;;
21334;SDS011;69435;52.670;13.544;2023-08-08T03:10:04;1.40;;;1.30;;
21334;SDS011;69435;52.670;13.544;2023-08-08T03:12:51;2.90;;;1.40;;
21334;SDS011;69435;52.670;13.544;2023-08-08T03:15:37;2.00;;;1.37;;
21334;SDS011;69435;52.670;13.544;2023-08-08T03:18:23;1.50;;;1.40;;
21334;SDS011;69435;52.670;13.544;2023-08-08T03:21:11;2.63;;;1.40;;
21334;SDS011;69435;52.670;13.544;2023-08-08T03:23:57;1.43;;;1.33;;
21334;SDS011;69435;52.670;13.544;2023-08-08T03:26:43;1.50;;;1.40;;
21334;SDS011;69435;52.670;13.544;2023-08-08T03:29:29;2.57;;;1.53;;
21334;SDS011;69435;52.670;13.544;2023-08-08T03:32:15;1.80;;;1.70;;
21334;SDS011;69435;52.670;13.544;2023-08-08T03:35:02;1.90;;;1.70;;
21334;SDS011;69435;52.670;13.544;2023-08-08T03:37:49;1.63;;;1.53;;
21334;SDS011;69435;52.670;13.544;2023-08-08T03:40:35;1.77;;;1.30;;
21334;SDS011;69435;52.670;13.544;2023-08-08T03:43:21;2.80;;;1.80;;
21334;SDS011;69435;52.670;13.544;2023-08-08T03:46:07;3.10;;;1.70;;
21334;SDS011;69435;52.670;13.544;2023-08-08T03:48:54;2.20;;;2.10;;
21334;SDS011;69435;52.670;13.544;2023-08-08T03:51:40;2.47;;;1.70;;
21334;SDS011;69435;52.670;13.544;2023-08-08T03:54:26;3.90;;;1.80;;
21334;SDS011;69435;52.670;13.544;2023-08-08T03:57:12;3.20;;;1.83;;
21334;SDS011;69435;52.670;13.544;2023-08-08T03:59:58;4.47;;;1.77;;
21334;SDS011;69435;52.670;13.544;2023-08-08T04:02:44;2.23;;;1.43;;
21334;SDS011;69435;52.670;13.544;2023-08-08T04:05:30;1.50;;;1.40;;
21334;SDS011;69435;52.670;13.544;2023-08-08T04:08:17;1.83;;;1.70;;
21334;SDS011;69435;52.670;13.544;2023-08-08T04:11:03;5.70;;;1.60;;
21334;SDS011;69435;52.670;13.544;2023-08-08T04:13:49;1.57;;;1.47;;
21334;SDS011;69435;52.670;13.544;2023-08-08T04:16:34;3.33;;;1.63;;
21334;SDS011;69435;52.670;13.544;2023-08-08T04:19:20;1.80;;;1.70;;
21334;SDS011;69435;52.670;13.544;2023-08-08T04:22:07;1.60;;;1.50;;
21334;SDS011;69435;52.670;13.544;2023-08-08T04:24:53;4.37;;;1.80;;
21334;SDS011;69435;52.670;13.544;2023-08-08T04:27:38;2.20;;;2.00;;
21334;SDS011;69435;52.670;13.544;2023-08-08T04:30:25;7.17;;;1.90;;
21334;SDS011;69435;52.670;13.544;2023-08-08T04:33:11;2.30;;;1.60;;
21334;SDS011;69435;52.670;13.544;2023-08-08T04:35:58;2.77;;;1.43;;
21334;SDS011;69435;52.670;13.544;2023-08-08T04:38:44;2.17;;;1.80;;
21334;SDS011;69435;52.670;13.544;2023-08-08T04:41:30;1.97;;;1.87;;
21334;SDS011;69435;52.670;13.544;2023-08-08T04:44:16;3.97;;;2.23;;
21334;SDS011;69435;52.670;13.544;2023-08-08T04:47:02;1.87;;;1.77;;
21334;SDS011;69435;52.670;13.544;2023-08-08T04:49:49;4.20;;;1.63;;
21334;SDS011;69435;52.670;13.544;2023-08-08T04:52:35;1.67;;;1.57;;
21334;SDS011;69435;52.670;13.544;2023-08-08T04:55:21;1.80;;;1.63;;
21334;SDS011;69435;52.670;13.544;2023-08-08T04:58:07;2.10;;;1.73;;
21334;SDS011;69435;52.670;13.544;2023-08-08T05:00:53;2.93;;;2.30;;
21334;SDS011;69435;52.670;13.544;2023-08-08T05:03:40;2.10;;;1.77;;
21334;SDS011;69435;52.670;13.544;2023-08-08T05:06:26;2.47;;;1.93;;
21334;SDS011;69435;52.670;13.544;2023-08-08T05:09:12;1.67;;;1.57;;
21334;SDS011;69435;52.670;13.544;2023-08-08T05:11:58;1.77;;;1.60;;
21334;SDS011;69435;52.670;13.544;2023-08-08T05:14:44;2.80;;;2.00;;
21334;SDS011;69435;52.670;13.544;2023-08-08T05:17:30;2.77;;;2.13;;
21334;SDS011;69435;52.670;13.544;2023-08-08T05:20:17;1.90;;;1.60;;
21334;SDS011;69435;52.670;13.544;2023-08-08T05:23:03;2.93;;;1.50;;
21334;SDS011;69435;52.670;13.544;2023-08-08T05:25:49;2.10;;;1.90;;
21334;SDS011;69435;52.670;13.544;2023-08-08T05:28:36;5.33;;;1.70;;
21334;SDS011;69435;52.670;13.544;2023-08-08T05:31:23;3.53;;;1.60;;
21334;SDS011;69435;52.670;13.544;2023-08-08T05:34:09;3.93;;;1.57;;
21334;SDS011;69435;52.670;13.544;2023-08-08T05:36:55;1.97;;;1.80;;
21334;SDS011;69435;52.670;13.544;2023-08-08T05:39:41;2.40;;;1.83;;
21334;SDS011;69435;52.670;13.544;2023-08-08T05:42:27;1.60;;;1.50;;
21334;SDS011;69435;52.670;13.544;2023-08-08T05:45:12;2.07;;;1.87;;
21334;SDS011;69435;52.670;13.544;2023-08-08T05:47:59;1.90;;;1.70;;
21334;SDS011;69435;52.670;13.544;2023-08-08T05:50:45;1.60;;;1.50;;
21334;SDS011;69435;52.670;13.544;2023-08-08T05:53:31;1.80;;;1.70;;
21334;SDS011;69435;52.670;13.544;2023-08-08T05:56:17;1.83;;;1.30;;
21334;SDS011;69435;52.670;13.544;2023-08-08T05:59:04;2.23;;;1.83;;
21334;SDS011;69435;52.670;13.544;2023-08-08T06:01:50;1.63;;;1.40;;
21334;SDS011;69435;52.670;13.544;2023-08-08T06:04:37;1.53;;;1.43;;
21334;SDS011;69435;52.670;13.544;2023-08-08T06:07:23;2.20;;;1.70;;
21334;SDS011;69435;52.670;13.544;2023-08-08T06:10:09;3.57;;;2.03;;
21334;SDS011;69435;52.670;13.544;2023-08-08T06:12:55;3.87;;;1.80;;
21334;SDS011;69435;52.670;13.544;2023-08-08T06:15:41;2.93;;;1.33;;
21334;SDS011;69435;52.670;13.544;2023-08-08T06:18:27;1.93;;;1.53;;
21334;SDS011;69435;52.670;13.544;2023-08-08T06:21:13;1.77;;;1.60;;
21334;SDS011;69435;52.670;13.544;2023-08-08T06:23:59;1.60;;;1.50;;
21334;SDS011;69435;52.670;13.544;2023-08-08T06:26:45;2.37;;;1.57;;
21334;SDS011;69435;52.670;13.544;2023-08-08T06:29:31;1.60;;;1.50;;
21334;SDS011;69435;52.670;13.544;2023-08-08T06:32:17;2.00;;;1.70;;
21334;SDS011;69435;52.670;13.544;2023-08-08T06:35:03;1.83;;;1.50;;
21334;SDS011;69435;52.670;13.544;2023-08-08T06:37:50;3.00;;;1.70;;
21334;SDS011;69435;52.670;13.544;2023-08-08T06:40:36;2.27;;;1.43;;
21334;SDS011;69435;52.670;13.544;2023-08-08T06:43:22;1.47;;;1.47;;
21334;SDS011;69435;52.670;13.544;2023-08-08T06:46:08;2.27;;;1.83;;
21334;SDS011;69435;52.670;13.544;2023-08-08T06:48:55;2.80;;;1.63;;
21334;SDS011;69435;52.670;13.544;2023-08-08T06:51:44;3.10;;;1.80;;
21334;SDS011;69435;52.670;13.544;2023-08-08T06:54:30;1.43;;;1.33;;
21334;SDS011;69435;52.670;13.544;2023-08-08T06:57:16;4.53;;;1.93;;
21334;SDS011;69435;52.670;13.544;2023-08-08T07:00:02;2.70;;;1.60;;
21334;SDS011;69435;52.670;13.544;2023-08-08T07:02:53;3.07;;;1.43;;
21334;SDS011;69435;52.670;13.544;2023-08-08T07:05:39;1.63;;;1.53;;
21334;SDS011;69435;52.670;13.544;2023-08-08T07:08:25;1.60;;;1.50;;
21334;SDS011;69435;52.670;13.544;2023-08-08T07:11:11;1.57;;;1.47;;
21334;SDS011;69435;52.670;13.544;2023-08-08T07:13:57;1.60;;;1.40;;
21334;SDS011;69435;52.670;13.544;2023-08-08T07:16:43;4.73;;;1.70;;
21334;SDS011;69435;52.670;13.544;2023-08-08T07:19:29;4.30;;;1.93;;
21334;SDS011;69435;52.670;13.544;2023-08-08T07:22:15;2.37;;;1.50;;
21334;SDS011;69435;52.670;13.544;2023-08-08T07:25:01;2.90;;;1.80;;
21334;SDS011;69435;52.670;13.544;2023-08-08T07:27:48;1.77;;;1.57;;
21334;SDS011;69435;52.670;13.544;2023-08-08T07:30:34;2.97;;;1.60;;
21334;SDS011;69435;52.670;13.544;2023-08-08T07:33:21;1.63;;;1.47;;
21334;SDS011;69435;52.670;13.544;2023-08-08T07:36:07;1.43;;;1.33;;
21334;SDS011;69435;52.670;13.544;2023-08-08T07:38:53;2.37;;;1.60;;
21334;SDS011;69435;52.670;13.544;2023-08-08T07:41:44;1.57;;;1.47;;
21334;SDS011;69435;52.670;13.544;2023-08-08T07:44:30;1.97;;;1.80;;
21334;SDS011;69435;52.670;13.544;2023-08-08T07:47:18;2.53;;;1.57;;
21334;SDS011;69435;52.670;13.544;2023-08-08T07:50:04;4.97;;;1.60;;
21334;SDS011;69435;52.670;13.544;2023-08-08T07:52:53;1.70;;;1.37;;
21334;SDS011;69435;52.670;13.544;2023-08-08T07:55:39;1.70;;;1.60;;
21334;SDS011;69435;52.670;13.544;2023-08-08T07:58:25;1.50;;;1.40;;
21334;SDS011;69435;52.670;13.544;2023-08-08T08:01:12;1.57;;;1.47;;
21334;SDS011;69435;52.670;13.544;2023-08-08T08:03:59;3.23;;;1.47;;
21334;SDS011;69435;52.670;13.544;2023-08-08T08:06:45;3.90;;;1.23;;
21334;SDS011;69435;52.670;13.544;2023-08-08T08:09:31;1.60;;;1.50;;
21334;SDS011;69435;52.670;13.544;2023-08-08T08:12:17;1.97;;;1.33;;
21334;SDS011;69435;52.670;13.544;2023-08-08T08:15:05;1.47;;;1.27;;
21334;SDS011;69435;52.670;13.544;2023-08-08T08:17:52;1.47;;;1.30;;
21334;SDS011;69435;52.670;13.544;2023-08-08T08:20:38;2.83;;;1.90;;
21334;SDS011;69435;52.670;13.544;2023-08-08T08:23:24;1.97;;;1.57;;
21334;SDS011;69435;52.670;13.544;2023-08-08T08:26:10;1.60;;;1.50;;
21334;SDS011;69435;52.670;13.544;2023-08-08T08:28:57;2.30;;;1.57;;
21334;SDS011;69435;52.670;13.544;2023-08-08T08:31:43;5.80;;;1.77;;
21334;SDS011;69435;52.670;13.544;2023-08-08T08:34:29;2.67;;;1.70;;
21334;SDS011;69435;52.670;13.544;2023-08-08T08:37:15;1.50;;;1.40;;
21334;SDS011;69435;52.670;13.544;2023-08-08T08:40:01;2.40;;;1.80;;
21334;SDS011;69435;52.670;13.544;2023-08-08T08:42:49;2.30;;;1.60;;
21334;SDS011;69435;52.670;13.544;2023-08-08T08:45:37;1.97;;;1.70;;
21334;SDS011;69435;52.670;13.544;2023-08-08T08:48:26;1.40;;;1.40;;
21334;SDS011;69435;52.670;13.544;2023-08-08T08:51:14;1.33;;;1.30;;
21334;SDS011;69435;52.670;13.544;2023-08-08T08:54:01;1.90;;;1.80;;
21334;SDS011;69435;52.670;13.544;2023-08-08T08:56:48;2.17;;;1.30;;
21334;SDS011;69435;52.670;13.544;2023-08-08T08:59:35;2.90;;;1.77;;
21334;SDS011;69435;52.670;13.544;2023-08-08T09:02:21;1.47;;;1.37;;
21334;SDS011;69435;52.670;13.544;2023-08-08T09:05:09;2.53;;;2.17;;
21334;SDS011;69435;52.670;13.544;2023-08-08T09:07:57;1.30;;;1.27;;
21334;SDS011;69435;52.670;13.544;2023-08-08T09:10:44;1.60;;;1.50;;
21334;SDS011;69435;52.670;13.544;2023-08-08T09:13:35;2.07;;;1.90;;
21334;SDS011;69435;52.670;13.544;2023-08-08T09:16:26;1.80;;;1.20;;
21334;SDS011;69435;52.670;13.544;2023-08-08T09:19:13;3.27;;;1.83;;
21334;SDS011;69435;52.670;13.544;2023-08-08T09:22:00;1.97;;;1.30;;
21334;SDS011;69435;52.670;13.544;2023-08-08T09:24:46;1.87;;;1.67;;
21334;SDS011;69435;52.670;13.544;2023-08-08T09:27:33;1.67;;;1.57;;
21334;SDS011;69435;52.670;13.544;2023-08-08T09:30:20;2.50;;;1.53;;
21334;SDS011;69435;52.670;13.544;2023-08-08T09:33:08;2.57;;;1.40;;
21334;SDS011;69435;52.670;13.544;2023-08-08T09:35:54;3.10;;;1.33;;
21334;SDS011;69435;52.670;13.544;2023-08-08T09:38:40;2.30;;;1.13;;
21334;SDS011;69435;52.670;13.544;2023-08-08T09:41:26;5.03;;;1.90;;
21334;SDS011;69435;52.670;13.544;2023-08-08T09:44:13;1.57;;;1.30;;
21334;SDS011;69435;52.670;13.544;2023-08-08T09:46:59;1.67;;;1.50;;
21334;SDS011;69435;52.670;13.544;2023-08-08T09:49:45;1.83;;;1.70;;
21334;SDS011;69435;52.670;13.544;2023-08-08T09:52:35;1.67;;;1.50;;
21334;SDS011;69435;52.670;13.544;2023-08-08T09:55:24;1.50;;;1.40;;
21334;SDS011;69435;52.670;13.544;2023-08-08T09:58:11;3.00;;;1.50;;
21334;SDS011;69435;52.670;13.544;2023-08-08T10:00:59;1.47;;;1.33;;
21334;SDS011;69435;52.670;13.544;2023-08-08T10:03:45;5.47;;;1.67;;
21334;SDS011;69435;52.670;13.544;2023-08-08T10:06:33;2.50;;;1.37;;
21334;SDS011;69435;52.670;13.544;2023-08-08T10:09:19;1.77;;;1.37;;
21334;SDS011;69435;52.670;13.544;2023-08-08T10:12:06;1.17;;;1.17;;
21334;SDS011;69435;52.670;13.544;2023-08-08T10:14:54;1.55;;;1.20;;
21334;SDS011;69435;52.670;13.544;2023-08-08T10:17:41;3.40;;;1.30;;
21334;SDS011;69435;52.670;13.544;2023-08-08T10:20:28;5.43;;;1.52;;
21334;SDS011;69435;52.670;13.544;2023-08-08T10:23:20;2.95;;;1.40;;
21334;SDS011;69435;52.670;13.544;2023-08-08T10:26:17;2.95;;;1.50;;
21334;SDS011;69435;52.670;13.544;2023-08-08T10:29:04;2.67;;;1.70;;
21334;SDS011;69435;52.670;13.544;2023-08-08T10:32:21;2.35;;;2.00;;
21334;SDS011;69435;52.670;13.544;2023-08-08T10:35:11;1.60;;;1.50;;
21334;SDS011;69435;52.670;13.544;2023-08-08T10:37:57;2.15;;;1.55;;
21334;SDS011;69435;52.670;13.544;2023-08-08T10:40:43;2.85;;;1.80;;
21334;SDS011;69435;52.670;13.544;2023-08-08T10:43:29;2.70;;;1.77;;
21334;SDS011;69435;52.670;13.544;2023-08-08T10:46:26;2.50;;;1.77;;
21334;SDS011;69435;52.670;13.544;2023-08-08T10:49:15;1.60;;;1.50;;
21334;SDS011;69435;52.670;13.544;2023-08-08T10:52:03;2.67;;;1.55;;
21334;SDS011;69435;52.670;13.544;2023-08-08T10:54:52;1.98;;;1.67;;
21334;SDS011;69435;52.670;13.544;2023-08-08T10:57:40;2.95;;;1.92;;
21334;SDS011;69435;52.670;13.544;2023-08-08T11:00:30;3.43;;;2.20;;
21334;SDS011;69435;52.670;13.544;2023-08-08T11:03:19;1.63;;;1.53;;
21334;SDS011;69435;52.670;13.544;2023-08-08T11:06:07;1.70;;;1.60;;
21334;SDS011;69435;52.670;13.544;2023-08-08T11:08:54;2.77;;;1.93;;
21334;SDS011;69435;52.670;13.544;2023-08-08T11:11:41;3.40;;;1.80;;
21334;SDS011;69435;52.670;13.544;2023-08-08T11:14:29;3.63;;;2.43;;
21334;SDS011;69435;52.670;13.544;2023-08-08T11:17:15;5.43;;;2.23;;
21334;SDS011;69435;52.670;13.544;2023-08-08T11:20:01;2.10;;;1.90;;
21334;SDS011;69435;52.670;13.544;2023-08-08T11:22:51;2.63;;;1.97;;
21334;SDS011;69435;52.670;13.544;2023-08-08T11:25:42;2.60;;;2.20;;
21334;SDS011;69435;52.670;13.544;2023-08-08T11:28:30;2.57;;;1.60;;
21334;SDS011;69435;52.670;13.544;2023-08-08T11:31:16;3.83;;;2.03;;
21334;SDS011;69435;52.670;13.544;2023-08-08T11:34:05;1.80;;;1.70;;
21334;SDS011;69435;52.670;13.544;2023-08-08T11:36:51;6.00;;;1.77;;
21334;SDS011;69435;52.670;13.544;2023-08-08T11:39:37;1.63;;;1.60;;
21334;SDS011;69435;52.670;13.544;2023-08-08T11:42:23;5.00;;;1.77;;
21334;SDS011;69435;52.670;13.544;2023-08-08T11:45:10;1.90;;;1.57;;
21334;SDS011;69435;52.670;13.544;2023-08-08T11:47:59;2.20;;;2.03;;
21334;SDS011;69435;52.670;13.544;2023-08-08T11:50:46;3.17;;;1.83;;
21334;SDS011;69435;52.670;13.544;2023-08-08T11:53:33;2.97;;;1.47;;
21334;SDS011;69435;52.670;13.544;2023-08-08T11:56:20;1.60;;;1.50;;
21334;SDS011;69435;52.670;13.544;2023-08-08T11:59:07;4.37;;;1.30;;
21334;SDS011;69435;52.670;13.544;2023-08-08T12:01:54;1.40;;;1.30;;
21334;SDS011;69435;52.670;13.544;2023-08-08T12:04:45;1.20;;;1.20;;
21334;SDS011;69435;52.670;13.544;2023-08-08T12:07:32;2.47;;;1.37;;
21334;SDS011;69435;52.670;13.544;2023-08-08T12:10:21;1.67;;;1.57;;
21334;SDS011;69435;52.670;13.544;2023-08-08T12:13:09;1.30;;;1.20;;
21334;SDS011;69435;52.670;13.544;2023-08-08T12:15:55;1.67;;;1.57;;
21334;SDS011;69435;52.670;13.544;2023-08-08T12:18:44;2.53;;;1.40;;
21334;SDS011;69435;52.670;13.544;2023-08-08T12:21:30;2.60;;;1.33;;
21334;SDS011;69435;52.670;13.544;2023-08-08T12:24:18;1.60;;;1.50;;
21334;SDS011;69435;52.670;13.544;2023-08-08T12:27:04;1.60;;;1.50;;
21334;SDS011;69435;52.670;13.544;2023-08-08T12:29:50;2.05;;;1.50;;
21334;SDS011;69435;52.670;13.544;2023-08-08T12:32:37;2.13;;;1.57;;
21334;SDS011;69435;52.670;13.544;2023-08-08T12:35:23;3.33;;;1.63;;
21334;SDS011;69435;52.670;13.544;2023-08-08T12:38:11;1.73;;;1.63;;
21334;SDS011;69435;52.670;13.544;2023-08-08T12:40:57;2.20;;;1.73;;
21334;SDS011;69435;52.670;13.544;2023-08-08T12:43:47;2.03;;;1.80;;
21334;SDS011;69435;52.670;13.544;2023-08-08T12:46:34;1.33;;;1.33;;
21334;SDS011;69435;52.670;13.544;2023-08-08T12:49:20;2.70;;;1.83;;
21334;SDS011;69435;52.670;13.544;2023-08-08T12:52:06;1.57;;;1.47;;
21334;SDS011;69435;52.670;13.544;2023-08-08T12:54:52;2.00;;;1.80;;
21334;SDS011;69435;52.670;13.544;2023-08-08T12:57:38;2.40;;;1.67;;
21334;SDS011;69435;52.670;13.544;2023-08-08T13:00:25;1.50;;;1.40;;
21334;SDS011;69435;52.670;13.544;2023-08-08T13:03:12;2.40;;;1.57;;
21334;SDS011;69435;52.670;13.544;2023-08-08T13:05:58;3.23;;;1.63;;
21334;SDS011;69435;52.670;13.544;2023-08-08T13:08:44;4.57;;;2.40;;
21334;SDS011;69435;52.670;13.544;2023-08-08T13:11:30;5.03;;;2.60;;
21334;SDS011;69435;52.670;13.544;2023-08-08T13:14:16;3.93;;;1.97;;
21334;SDS011;69435;52.670;13.544;2023-08-08T13:17:02;2.80;;;2.40;;
21334;SDS011;69435;52.670;13.544;2023-08-08T13:19:48;10.40;;;2.50;;
21334;SDS011;69435;52.670;13.544;2023-08-08T13:22:34;3.00;;;2.80;;
21334;SDS011;69435;52.670;13.544;2023-08-08T13:25:20;2.53;;;2.33;;
21334;SDS011;69435;52.670;13.544;2023-08-08T13:28:06;3.13;;;2.50;;
21334;SDS011;69435;52.670;13.544;2023-08-08T13:30:52;3.93;;;2.40;;
21334;SDS011;69435;52.670;13.544;2023-08-08T13:33:38;3.50;;;3.17;;
21334;SDS011;69435;52.670;13.544;2023-08-08T13:36:24;3.90;;;3.47;;
21334;SDS011;69435;52.670;13.544;2023-08-08T13:39:10;3.03;;;2.80;;
21334;SDS011;69435;52.670;13.544;2023-08-08T13:41:56;3.07;;;2.67;;
21334;SDS011;69435;52.670;13.544;2023-08-08T13:44:42;3.20;;;2.80;;
21334;SDS011;69435;52.670;13.544;2023-08-08T13:47:29;5.47;;;3.27;;
21334;SDS011;69435;52.670;13.544;2023-08-08T13:50:15;2.97;;;2.63;;
21334;SDS011;69435;52.670;13.544;2023-08-08T13:53:01;3.83;;;2.77;;
21334;SDS011;69435;52.670;13.544;2023-08-08T13:55:47;3.13;;;2.30;;
21334;SDS011;69435;52.670;13.544;2023-08-08T13:58:33;4.07;;;2.43;;
21334;SDS011;69435;52.670;13.544;2023-08-08T14:01:19;2.73;;;2.53;;
21334;SDS011;69435;52.670;13.544;2023-08-08T14:04:05;2.70;;;2.50;;
21334;SDS011;69435;52.670;13.544;2023-08-08T14:06:51;3.00;;;2.80;;
21334;SDS011;69435;52.670;13.544;2023-08-08T14:09:37;2.90;;;2.70;;
21334;SDS011;69435;52.670;13.544;2023-08-08T14:12:23;5.13;;;2.40;;
21334;SDS011;69435;52.670;13.544;2023-08-08T14:15:09;2.50;;;2.30;;
21334;SDS011;69435;52.670;13.544;2023-08-08T14:17:56;2.03;;;1.93;;
21334;SDS011;69435;52.670;13.544;2023-08-08T14:20:42;2.20;;;2.00;;
21334;SDS011;69435;52.670;13.544;2023-08-08T14:23:28;2.73;;;2.53;;
21334;SDS011;69435;52.670;13.544;2023-08-08T14:26:14;3.33;;;2.63;;
21334;SDS011;69435;52.670;13.544;2023-08-08T14:29:00;5.43;;;2.40;;
21334;SDS011;69435;52.670;13.544;2023-08-08T14:31:46;2.87;;;2.30;;
21334;SDS011;69435;52.670;13.544;2023-08-08T14:34:32;3.67;;;2.10;;
21334;SDS011;69435;52.670;13.544;2023-08-08T14:37:19;2.70;;;2.07;;
21334;SDS011;69435;52.670;13.544;2023-08-08T14:40:06;2.27;;;2.00;;
21334;SDS011;69435;52.670;13.544;2023-08-08T14:42:54;2.20;;;2.00;;
21334;SDS011;69435;52.670;13.544;2023-08-08T14:45:40;1.83;;;1.73;;
21334;SDS011;69435;52.670;13.544;2023-08-08T14:48:26;1.83;;;1.73;;
21334;SDS011;69435;52.670;13.544;2023-08-08T14:51:12;3.40;;;1.83;;
21334;SDS011;69435;52.670;13.544;2023-08-08T14:54:02;2.40;;;2.20;;
21334;SDS011;69435;52.670;13.544;2023-08-08T14:56:49;5.10;;;2.40;;
21334;SDS011;69435;52.670;13.544;2023-08-08T14:59:35;5.93;;;2.03;;
21334;SDS011;69435;52.670;13.544;2023-08-08T15:02:22;1.73;;;1.63;;
21334;SDS011;69435;52.670;13.544;2023-08-08T15:05:08;2.47;;;1.70;;
21334;SDS011;69435;52.670;13.544;2023-08-08T15:07:55;1.60;;;1.50;;
21334;SDS011;69435;52.670;13.544;2023-08-08T15:10:41;1.87;;;1.60;;
21334;SDS011;69435;52.670;13.544;2023-08-08T15:13:27;1.63;;;1.53;;
21334;SDS011;69435;52.670;13.544;2023-08-08T15:16:13;2.07;;;1.50;;
21334;SDS011;69435;52.670;13.544;2023-08-08T15:19:01;1.47;;;1.37;;
21334;SDS011;69435;52.670;13.544;2023-08-08T15:21:47;1.43;;;1.33;;
21334;SDS011;69435;52.670;13.544;2023-08-08T15:24:34;2.00;;;1.23;;
21334;SDS011;69435;52.670;13.544;2023-08-08T15:27:21;1.40;;;1.30;;
21334;SDS011;69435;52.670;13.544;2023-08-08T15:30:08;1.37;;;1.27;;
21334;SDS011;69435;52.670;13.544;2023-08-08T15:32:54;2.30;;;2.07;;
21334;SDS011;69435;52.670;13.544;2023-08-08T15:35:41;2.63;;;1.57;;
21334;SDS011;69435;52.670;13.544;2023-08-08T15:38:27;1.73;;;1.47;;
21334;SDS011;69435;52.670;13.544;2023-08-08T15:41:13;1.10;;;1.00;;
21334;SDS011;69435;52.670;13.544;2023-08-08T15:43:59;2.43;;;0.90;;
21334;SDS011;69435;52.670;13.544;2023-08-08T15:46:45;5.03;;;1.00;;
21334;SDS011;69435;52.670;13.544;2023-08-08T15:49:31;0.80;;;0.80;;
21334;SDS011;69435;52.670;13.544;2023-08-08T15:52:17;1.00;;;0.87;;
21334;SDS011;69435;52.670;13.544;2023-08-08T15:54:43;3.40;;;1.00;;
21334;SDS011;69435;52.670;13.544;2023-08-08T15:57:08;4.27;;;1.10;;
21334;SDS011;69435;52.670;13.544;2023-08-08T15:59:34;1.70;;;1.27;;
21334;SDS011;69435;52.670;13.544;2023-08-08T16:02:01;1.07;;;0.87;;
21334;SDS011;69435;52.670;13.544;2023-08-08T16:04:27;1.47;;;1.23;;
21334;SDS011;69435;52.670;13.544;2023-08-08T16:06:53;0.93;;;0.87;;
21334;SDS011;69435;52.670;13.544;2023-08-08T16:09:18;1.37;;;1.00;;
21334;SDS011;69435;52.670;13.544;2023-08-08T16:11:44;1.10;;;1.10;;
21334;SDS011;69435;52.670;13.544;2023-08-08T16:14:10;0.97;;;0.97;;
21334;SDS011;69435;52.670;13.544;2023-08-08T16:16:35;2.33;;;1.03;;
21334;SDS011;69435;52.670;13.544;2023-08-08T16:19:01;2.10;;;0.83;;
21334;SDS011;69435;52.670;13.544;2023-08-08T16:21:27;1.10;;;1.10;;
21334;SDS011;69435;52.670;13.544;2023-08-08T16:23:52;0.90;;;0.90;;
21334;SDS011;69435;52.670;13.544;2023-08-08T16:26:19;1.20;;;1.10;;